Airfield :







YOU CAN JOIN US ON...

 
LOGIN :

Register | Disclaimer

   EN    FR    IT 

 









Legend :    VFR   Marginal VFR   IFR   Intensive IFR   Very Intensive IFR
Visi :
Ceiling :
>= 8 km
>= 3000ft
5 to 8 km
1000 to 3000 ft
1500m to 5 km
500 to 1000 ft
800 to 1500m
200 to 500 ft
< 800m
< 200 ft
Symbols :   Thunderstorms  Fog  Heavy snow  Heavy precipitations  Wind > 20 kt






- Airport Elevation : 241 ft
- IATA code : CEF


KCEF - Westover ARB/Metropolitan

CURRENT METAR :
  • 131656Z 21005KT 10SM SCT055 BKN070 BKN200 27/13 A2987 RMK AO2A SLP120 WND DATA ESTMD T02670131

EXPIRED METARs :
  • 131556Z 19008KT 10SM FEW050 SCT210 26/13 A2988 RMK AO2A SLP123 WND DATA ESTMD T02600128
  • 131456Z 18006KT 10SM FEW050 FEW120 SCT220 24/14 A2989 RMK AO2A SLP127 WND DATA ESTMD T02440142 57005

TAF TAF KCEF
Valid from the 13 at 11:00 until the 14 at 17:00 UTC


131109Z 1311/1417 18004KT 9999 SCT080 BKN220 QNH2988INS
BECMG 1315/1316 20008KT 9999 FEW120 SCT200 QNH2982INS
BECMG 1320/1321 18010G15KT 9999 BKN035 QNH2982INS
BECMG 1401/1402 18009KT 9999 BKN020 OVC065 QNH2983INS
BECMG 1405/1406 17007KT 8000 -RA BR BKN020 OVC045 QNH2987INS
BECMG 1408/1409 15007KT 4000 RA BR BKN008 OVC015 QNH2987INS
BECMG 1411/1412 16010G15KT 3200 RA BR BKN008 OVC015 QNH2988INS TX28/1320Z TN16/1410Z
KZBW FIR / North America



MET'MAP, your aeronautical weather chart ! - Copyright ORBIFLY December 2007 - Disclaimer

ORBIFLY MET'MAP TEAM :

Programming & Development : Alexandra Zaïnal
Concept & original design : Baudouin d'Aumeries
Assistance for programming : Marc-Olivier Méhu
Technical & hardware support : Manuel Goepfert

Contact : metmap@orbifly.com




SOURCES & CREDITS :

   NOAA